createdAt,value
2018-01-03T00:01:45.161Z,10.50
2018-01-03T00:04:12.698Z,9.27
2018-01-03T00:06:40.299Z,8.83
2018-01-03T00:09:07.597Z,9.97
2018-01-03T00:11:34.949Z,9.27
2018-01-03T00:14:02.303Z,10.30
2018-01-03T00:16:29.622Z,9.27
2018-01-03T00:18:57.326Z,9.90
2018-01-03T00:21:24.648Z,10.50
2018-01-03T00:23:52.297Z,10.80
2018-01-03T00:26:20.010Z,11.17
2018-01-03T00:28:47.333Z,10.40
2018-01-03T00:31:15.026Z,8.77
2018-01-03T00:33:43.353Z,8.37
2018-01-03T00:36:10.677Z,9.50
2018-01-03T00:38:38.085Z,9.00
2018-01-03T00:41:05.725Z,8.30
2018-01-03T00:43:33.062Z,8.70
2018-01-03T00:46:00.378Z,9.07
2018-01-03T00:48:27.698Z,8.30
2018-01-03T00:50:55.526Z,8.27
2018-01-03T00:53:23.208Z,7.10
2018-01-03T00:55:50.546Z,8.07
2018-01-03T00:58:18.249Z,7.30
2018-01-03T01:00:45.879Z,7.73
2018-01-03T01:03:13.196Z,8.00
2018-01-03T01:05:40.545Z,8.00
2018-01-03T01:08:07.854Z,8.60
2018-01-03T01:10:35.201Z,8.10
2018-01-03T01:13:02.553Z,8.27
2018-01-03T01:15:30.213Z,7.33
2018-01-03T01:17:57.561Z,8.63
2018-01-03T01:20:25.231Z,7.53
2018-01-03T01:22:52.562Z,7.57
2018-01-03T01:25:20.291Z,8.13
2018-01-03T01:27:47.910Z,8.83
2018-01-03T01:30:15.223Z,8.23
2018-01-03T01:32:42.571Z,7.17
2018-01-03T01:35:09.883Z,8.20
2018-01-03T01:37:37.535Z,7.27
2018-01-03T01:40:04.886Z,7.10
2018-01-03T01:42:32.197Z,7.50
2018-01-03T01:44:59.513Z,7.60
2018-01-03T01:47:27.205Z,6.93
2018-01-03T01:49:54.598Z,7.07
2018-01-03T01:52:22.283Z,8.07
2018-01-03T01:54:49.922Z,7.77
2018-01-03T01:57:17.630Z,7.60
2018-01-03T01:59:45.253Z,7.73
2018-01-03T02:02:12.586Z,6.80
2018-01-03T02:04:39.952Z,7.17
2018-01-03T02:07:07.639Z,6.67
2018-01-03T02:09:34.950Z,7.57
2018-01-03T02:12:02.298Z,6.40
2018-01-03T02:14:29.693Z,6.73
2018-01-03T02:16:57.065Z,6.53
2018-01-03T02:19:24.708Z,6.23
2018-01-03T02:21:52.374Z,6.30
2018-01-03T02:24:19.722Z,6.90
2018-01-03T02:26:47.399Z,6.53
2018-01-03T02:29:14.706Z,6.03
2018-01-03T02:31:42.438Z,6.57
2018-01-03T02:34:10.070Z,5.93
2018-01-03T02:36:37.430Z,6.77
2018-01-03T02:39:04.741Z,5.73
2018-01-03T02:41:32.442Z,5.83
2018-01-03T02:43:59.808Z,5.30
2018-01-03T02:46:27.449Z,5.10
2018-01-03T02:48:55.158Z,5.93
2018-01-03T02:51:22.999Z,5.20
2018-01-03T02:53:50.638Z,5.93
2018-01-03T02:56:18.019Z,5.47
2018-01-03T02:58:45.505Z,5.60
2018-01-03T03:01:12.823Z,5.20
2018-01-03T03:03:40.478Z,4.97
2018-01-03T03:06:07.838Z,5.87
2018-01-03T03:08:35.506Z,5.67
2018-01-03T03:11:03.156Z,5.40
2018-01-03T03:13:30.926Z,5.20
2018-01-03T03:15:58.429Z,5.57
2018-01-03T03:18:25.746Z,5.77
2018-01-03T03:20:53.422Z,5.43
2018-01-03T03:23:20.754Z,5.83
2018-01-03T03:25:48.075Z,5.17
2018-01-03T03:28:15.491Z,6.50
2018-01-03T03:30:43.142Z,5.23
2018-01-03T03:33:10.786Z,5.13
2018-01-03T03:35:38.098Z,5.70
2018-01-03T03:38:05.469Z,4.40
2018-01-03T03:40:33.146Z,4.50
2018-01-03T03:43:00.474Z,5.00
2018-01-03T03:45:28.203Z,5.13
2018-01-03T03:47:55.831Z,4.23
2018-01-03T03:50:23.158Z,4.73
2018-01-03T03:52:50.869Z,3.90
2018-01-03T03:55:18.524Z,4.97
2018-01-03T03:57:46.182Z,3.70
2018-01-03T04:00:13.874Z,4.10
2018-01-03T04:02:41.189Z,3.87
2018-01-03T04:05:08.502Z,4.17
2018-01-03T04:07:36.234Z,3.50
2018-01-03T04:10:04.442Z,4.10
2018-01-03T04:12:31.841Z,4.90
2018-01-03T04:14:59.361Z,3.97
2018-01-03T04:17:27.042Z,3.90
2018-01-03T04:19:54.365Z,3.70
2018-01-03T04:22:21.813Z,4.20
2018-01-03T04:24:49.119Z,4.50
2018-01-03T04:27:16.654Z,4.40
2018-01-03T04:29:44.377Z,4.07
2018-01-03T04:32:11.718Z,4.83
2018-01-03T04:34:39.466Z,4.27
2018-01-03T04:37:07.164Z,4.20
2018-01-03T04:39:38.677Z,3.93
2018-01-03T04:42:05.990Z,5.57
2018-01-03T04:44:33.608Z,4.40
2018-01-03T04:47:01.250Z,3.90
2018-01-03T04:49:28.561Z,3.90
2018-01-03T04:51:56.314Z,4.03
2018-01-03T04:54:23.627Z,3.87
2018-01-03T04:56:50.969Z,3.47
2018-01-03T04:59:18.313Z,3.33
2018-01-03T05:01:45.982Z,4.30
2018-01-03T05:04:14.061Z,3.87
2018-01-03T05:06:41.417Z,4.53
2018-01-03T05:09:08.725Z,4.50
2018-01-03T05:11:36.077Z,3.73
2018-01-03T05:14:03.402Z,4.33
2018-01-03T05:16:31.076Z,4.43
2018-01-03T05:18:58.715Z,4.50
2018-01-03T05:21:26.362Z,4.50
2018-01-03T05:23:53.702Z,4.23
2018-01-03T05:26:21.394Z,4.00
2018-01-03T05:28:49.713Z,4.60
2018-01-03T05:31:17.037Z,4.83
2018-01-03T05:33:44.665Z,4.50
2018-01-03T05:36:12.038Z,4.60
2018-01-03T05:38:39.685Z,4.20
2018-01-03T05:41:07.010Z,4.30
2018-01-03T05:43:34.420Z,3.63
2018-01-03T05:46:01.718Z,4.10
2018-01-03T05:48:29.460Z,4.63
2018-01-03T05:50:56.778Z,4.67
2018-01-03T05:53:24.487Z,4.30
2018-01-03T05:55:51.838Z,5.03
2018-01-03T05:58:19.154Z,4.53
2018-01-03T06:00:46.799Z,5.60
2018-01-03T06:03:14.134Z,5.40
2018-01-03T06:05:41.521Z,5.50
2018-01-03T06:08:09.190Z,5.50
2018-01-03T06:10:36.826Z,5.37
2018-01-03T06:13:04.202Z,4.80
2018-01-03T06:15:31.547Z,5.07
2018-01-03T06:17:58.865Z,4.70
2018-01-03T06:20:26.309Z,5.00
2018-01-03T06:22:53.613Z,4.57
2018-01-03T06:25:20.923Z,5.70
2018-01-03T06:27:48.370Z,5.70
2018-01-03T06:30:15.702Z,6.97
2018-01-03T06:32:43.338Z,6.60
2018-01-03T06:35:10.641Z,6.60
2018-01-03T06:37:37.964Z,6.00
2018-01-03T06:40:05.326Z,6.47
2018-01-03T06:42:32.672Z,6.17
2018-01-03T06:45:00.307Z,5.47
2018-01-03T06:47:27.642Z,5.57
2018-01-03T06:49:55.014Z,6.40
2018-01-03T06:52:22.391Z,6.23
2018-01-03T06:54:49.747Z,6.20
2018-01-03T06:57:17.381Z,5.90
2018-01-03T06:59:45.057Z,6.10
2018-01-03T07:02:12.407Z,5.77
2018-01-03T07:04:39.725Z,6.20
2018-01-03T07:07:07.423Z,7.33
2018-01-03T07:09:34.774Z,7.83
2018-01-03T07:12:02.129Z,7.93
2018-01-03T07:14:29.454Z,7.20
2018-01-03T07:16:57.151Z,6.03
2018-01-03T07:19:25.089Z,6.40
2018-01-03T07:21:52.401Z,6.50
2018-01-03T07:24:20.026Z,7.00
2018-01-03T07:26:47.390Z,7.13
2018-01-03T07:29:14.717Z,6.40
2018-01-03T07:31:42.455Z,7.20
2018-01-03T07:34:09.809Z,7.30
2018-01-03T07:36:37.186Z,7.50
2018-01-03T07:39:04.870Z,6.77
2018-01-03T07:41:32.229Z,7.43
2018-01-03T07:43:59.549Z,5.97
2018-01-03T07:46:27.247Z,6.33
2018-01-03T07:48:54.618Z,5.80
2018-01-03T07:51:22.074Z,6.20
2018-01-03T07:53:49.738Z,6.40
2018-01-03T07:56:17.443Z,5.60
2018-01-03T07:58:44.845Z,5.37
2018-01-03T08:01:12.211Z,5.93
2018-01-03T08:03:39.546Z,5.70
2018-01-03T08:06:06.887Z,5.97
2018-01-03T08:08:34.262Z,5.30
2018-01-03T08:11:01.606Z,5.33
2018-01-03T08:13:28.919Z,5.60
2018-01-03T08:15:56.318Z,5.43
2018-01-03T08:18:23.650Z,4.97
2018-01-03T08:20:51.378Z,4.30
2018-01-03T08:23:18.994Z,4.40
2018-01-03T08:25:46.309Z,4.30
2018-01-03T08:28:13.658Z,4.13
2018-01-03T08:30:40.969Z,4.83
2018-01-03T08:33:08.278Z,4.73
2018-01-03T08:35:36.014Z,4.43
2018-01-03T08:38:03.326Z,3.80
2018-01-03T08:40:30.643Z,3.63
2018-01-03T08:42:57.981Z,3.63
2018-01-03T08:45:25.422Z,3.50
2018-01-03T08:47:53.068Z,4.83
2018-01-03T08:50:20.527Z,4.10
2018-01-03T08:52:48.200Z,3.97
2018-01-03T08:55:15.862Z,3.63
2018-01-03T08:57:43.518Z,3.70
2018-01-03T09:00:10.870Z,4.00
2018-01-03T09:02:38.225Z,3.43
2018-01-03T09:05:05.879Z,3.80
2018-01-03T09:07:33.181Z,4.27
2018-01-03T09:10:00.925Z,3.73
2018-01-03T09:12:28.578Z,3.20
2018-01-03T09:14:55.910Z,3.17
2018-01-03T09:17:23.213Z,3.17
2018-01-03T09:19:50.554Z,3.10
2018-01-03T09:22:17.872Z,3.10
2018-01-03T09:24:45.202Z,3.20
2018-01-03T09:27:12.914Z,2.80
2018-01-03T09:29:40.537Z,2.70
2018-01-03T09:32:07.906Z,2.93
2018-01-03T09:34:35.630Z,2.90
2018-01-03T09:37:03.322Z,2.80
2018-01-03T09:39:30.634Z,2.70
2018-01-03T09:41:58.011Z,3.10
2018-01-03T09:44:25.606Z,2.47
2018-01-03T09:46:53.174Z,2.73
2018-01-03T09:49:20.806Z,2.30
2018-01-03T09:51:48.150Z,2.47
2018-01-03T09:54:15.458Z,2.40
2018-01-03T09:56:43.074Z,2.27
2018-01-03T09:59:10.428Z,2.27
2018-01-03T10:01:37.814Z,3.00
2018-01-03T10:04:05.643Z,2.70
2018-01-03T10:06:33.269Z,3.03
2018-01-03T10:09:00.565Z,3.13
2018-01-03T10:11:27.874Z,2.70
2018-01-03T10:13:55.245Z,2.87
2018-01-03T10:16:23.133Z,3.77
2018-01-03T10:18:50.997Z,3.30
2018-01-03T10:21:18.722Z,3.33
2018-01-03T10:23:46.030Z,3.00
2018-01-03T10:26:13.338Z,3.17
2018-01-03T10:28:40.690Z,3.27
2018-01-03T10:31:08.046Z,2.70
2018-01-03T10:33:35.358Z,3.00
2018-01-03T10:36:03.229Z,3.03
2018-01-03T10:38:31.077Z,3.03
2018-01-03T10:40:58.387Z,3.20
2018-01-03T10:43:25.746Z,3.17
2018-01-03T10:45:53.438Z,2.90
2018-01-03T10:48:20.798Z,2.90
2018-01-03T10:50:48.143Z,2.73
2018-01-03T10:53:16.014Z,2.80
2018-01-03T10:55:43.881Z,2.57
2018-01-03T10:58:11.236Z,2.80
2018-01-03T11:00:42.658Z,3.20
2018-01-03T11:03:10.417Z,2.67
2018-01-03T11:05:37.746Z,2.80
2018-01-03T11:08:05.059Z,2.50
2018-01-03T11:10:32.389Z,2.80
2018-01-03T11:12:59.974Z,2.43
2018-01-03T11:15:27.633Z,2.50
2018-01-03T11:17:55.355Z,2.57
2018-01-03T11:20:22.663Z,2.40
2018-01-03T11:22:49.966Z,2.43
2018-01-03T11:25:18.302Z,3.03
2018-01-03T11:27:45.951Z,2.70
2018-01-03T11:30:13.253Z,3.27
2018-01-03T11:32:40.593Z,3.03
2018-01-03T11:35:08.226Z,3.17
2018-01-03T11:37:35.563Z,3.00
2018-01-03T11:40:03.242Z,3.17
2018-01-03T11:42:30.546Z,2.90
2018-01-03T11:44:57.891Z,3.90
2018-01-03T11:47:25.238Z,2.50
2018-01-03T11:49:52.850Z,2.30
2018-01-03T11:52:20.172Z,2.30
2018-01-03T11:54:47.561Z,2.10
2018-01-03T11:57:15.226Z,2.47
2018-01-03T11:59:43.017Z,2.53
2018-01-03T12:02:11.318Z,2.13
2018-01-03T12:04:38.627Z,2.33
2018-01-03T12:07:05.929Z,2.10
2018-01-03T12:09:33.273Z,2.23
2018-01-03T12:12:00.890Z,2.00
2018-01-03T12:14:28.209Z,2.30
2018-01-03T12:16:55.942Z,2.10
2018-01-03T12:19:23.566Z,2.13
2018-01-03T12:21:51.223Z,1.70
2018-01-03T12:24:18.554Z,1.53
2018-01-03T12:26:46.237Z,1.77
2018-01-03T12:29:13.959Z,1.30
2018-01-03T12:31:41.314Z,1.23
2018-01-03T12:34:08.918Z,1.27
2018-01-03T12:36:36.641Z,1.00
2018-01-03T12:39:03.954Z,1.30
2018-01-03T12:41:31.301Z,1.00
2018-01-03T12:43:58.637Z,1.80
2018-01-03T12:46:26.301Z,1.30
2018-01-03T12:48:54.122Z,1.40
2018-01-03T12:51:21.757Z,1.40
2018-01-03T12:53:49.391Z,1.20
2018-01-03T12:56:16.729Z,1.50
2018-01-03T12:58:44.421Z,1.33
2018-01-03T13:01:11.794Z,1.10
2018-01-03T13:03:43.087Z,1.10
2018-01-03T13:06:10.775Z,1.60
2018-01-03T13:08:38.434Z,1.50
2018-01-03T13:11:05.785Z,1.43
2018-01-03T13:13:33.085Z,1.70
2018-01-03T13:16:00.710Z,1.40
2018-01-03T13:18:28.064Z,1.60
2018-01-03T13:20:55.722Z,1.40
2018-01-03T13:23:23.386Z,1.50
2018-01-03T13:25:51.089Z,1.90
2018-01-03T13:28:19.238Z,1.50
2018-01-03T13:30:46.550Z,1.40
2018-01-03T13:33:14.265Z,1.80
2018-01-03T13:35:41.923Z,2.10
2018-01-03T13:38:09.226Z,1.60
2018-01-03T13:40:36.954Z,1.73
2018-01-03T13:43:04.253Z,1.70
2018-01-03T13:45:31.645Z,1.90
2018-01-03T13:47:59.089Z,2.10
2018-01-03T13:50:26.799Z,1.80
2018-01-03T13:52:54.411Z,1.80
2018-01-03T13:55:21.750Z,1.90
2018-01-03T13:57:49.467Z,2.07
2018-01-03T14:00:16.774Z,2.23
2018-01-03T14:02:44.446Z,1.83
2018-01-03T14:05:11.789Z,1.60
2018-01-03T14:07:39.651Z,2.10
2018-01-03T14:10:07.619Z,1.83
2018-01-03T14:12:36.824Z,1.97
2018-01-03T14:15:04.218Z,1.90
2018-01-03T14:17:32.170Z,1.80
2018-01-03T14:19:59.530Z,1.90
2018-01-03T14:22:27.176Z,1.90
2018-01-03T14:24:54.482Z,1.90
2018-01-03T14:27:21.838Z,1.83
2018-01-03T14:29:49.762Z,2.30
2018-01-03T14:32:17.074Z,2.00
2018-01-03T14:34:45.010Z,1.70
2018-01-03T14:37:12.833Z,2.93
2018-01-03T14:39:40.690Z,1.47
2018-01-03T14:42:08.613Z,2.00
2018-01-03T14:44:36.358Z,3.53
2018-01-03T14:47:04.001Z,4.43
2018-01-03T14:49:31.351Z,12.50
2018-01-03T14:51:58.677Z,8.70
2018-01-03T14:54:26.674Z,3.90
2018-01-03T14:56:54.023Z,2.33
2018-01-03T14:59:21.777Z,4.50
2018-01-03T15:01:49.450Z,2.63
2018-01-03T15:04:19.941Z,3.30
2018-01-03T15:06:47.300Z,4.33
2018-01-03T15:09:14.609Z,2.37
2018-01-03T15:11:42.266Z,2.10
2018-01-03T15:14:09.639Z,3.00
2018-01-03T15:16:37.266Z,2.30
2018-01-03T15:19:04.926Z,2.40
2018-01-03T15:21:32.294Z,2.40
2018-01-03T15:23:59.614Z,2.13
2018-01-03T15:26:27.350Z,2.80
2018-01-03T15:28:54.668Z,3.40
2018-01-03T15:31:21.980Z,2.70
2018-01-03T15:33:49.702Z,3.20
2018-01-03T15:36:17.018Z,2.90
2018-01-03T15:38:44.691Z,3.73
2018-01-03T15:41:12.510Z,2.40
2018-01-03T15:43:39.831Z,3.90
2018-01-03T15:46:07.465Z,2.70
2018-01-03T15:48:35.169Z,3.30
2018-01-03T15:51:02.785Z,3.30
2018-01-03T15:53:30.462Z,4.50
2018-01-03T15:55:58.150Z,3.90
2018-01-03T15:58:25.805Z,4.27
2018-01-03T16:00:53.498Z,3.17
2018-01-03T16:03:20.881Z,3.40
2018-01-03T16:05:48.566Z,3.30
2018-01-03T16:08:15.897Z,3.03
2018-01-03T16:10:43.582Z,3.03
2018-01-03T16:13:11.016Z,3.20
2018-01-03T16:15:38.727Z,3.30
2018-01-03T16:18:06.346Z,2.70
2018-01-03T16:20:33.817Z,3.20
2018-01-03T16:23:01.167Z,2.90
2018-01-03T16:25:28.490Z,2.80
2018-01-03T16:27:56.179Z,2.97
2018-01-03T16:30:23.527Z,2.80
2018-01-03T16:32:50.842Z,2.70
2018-01-03T16:35:18.146Z,2.53
2018-01-03T16:37:45.490Z,2.23
2018-01-03T16:40:13.182Z,2.37
2018-01-03T16:42:40.826Z,3.20
2018-01-03T16:45:08.189Z,2.40
2018-01-03T16:47:35.524Z,2.37
2018-01-03T16:50:03.182Z,1.87
2018-01-03T16:52:36.407Z,2.30
2018-01-03T16:55:04.050Z,2.70
2018-01-03T16:57:31.354Z,2.03
2018-01-03T16:59:58.978Z,2.10
2018-01-03T17:02:26.292Z,2.20
2018-01-03T17:04:53.984Z,2.00
2018-01-03T17:07:25.902Z,2.00
2018-01-03T17:09:53.602Z,1.90
2018-01-03T17:12:20.914Z,1.83
2018-01-03T17:14:48.258Z,1.77
2018-01-03T17:17:15.870Z,2.10
2018-01-03T17:19:43.558Z,2.10
2018-01-03T17:22:11.194Z,1.90
2018-01-03T17:24:38.558Z,2.20
2018-01-03T17:27:05.909Z,2.07
2018-01-03T17:29:33.258Z,2.20
2018-01-03T17:32:00.581Z,2.00
2018-01-03T17:34:28.303Z,2.67
2018-01-03T17:36:55.954Z,1.80
2018-01-03T17:39:23.617Z,1.80
2018-01-03T17:41:51.061Z,2.23
2018-01-03T17:44:18.430Z,1.50
2018-01-03T17:46:45.757Z,1.90
2018-01-03T17:49:13.087Z,2.37
2018-01-03T17:51:40.826Z,2.20
2018-01-03T17:54:08.442Z,1.97
2018-01-03T17:56:35.777Z,1.50
2018-01-03T17:59:03.303Z,1.87
2018-01-03T18:01:30.787Z,2.30
2018-01-03T18:03:58.493Z,2.03
2018-01-03T18:06:25.843Z,1.90
2018-01-03T18:08:53.194Z,1.97
2018-01-03T18:11:20.502Z,2.57
2018-01-03T18:13:48.193Z,2.07
2018-01-03T18:16:15.929Z,1.87
2018-01-03T18:18:43.258Z,2.63
2018-01-03T18:21:10.966Z,1.90
2018-01-03T18:23:38.686Z,1.90
2018-01-03T18:26:06.293Z,1.90
2018-01-03T18:28:34.066Z,2.07
2018-01-03T18:31:01.470Z,1.67
2018-01-03T18:33:29.389Z,2.30
2018-01-03T18:35:57.302Z,2.40
2018-01-03T18:38:24.602Z,1.70
2018-01-03T18:40:52.274Z,1.90
2018-01-03T18:43:19.615Z,1.70
2018-01-03T18:45:47.481Z,1.60
2018-01-03T18:48:15.466Z,1.70
2018-01-03T18:50:43.371Z,2.07
2018-01-03T18:53:11.198Z,1.37
2018-01-03T18:55:38.541Z,1.70
2018-01-03T18:58:06.434Z,1.57
2018-01-03T19:00:33.742Z,1.63
2018-01-03T19:03:01.658Z,1.23
2018-01-03T19:05:29.493Z,1.77
2018-01-03T19:07:57.389Z,1.33
2018-01-03T19:10:24.694Z,1.20
2018-01-03T19:12:52.035Z,1.60
2018-01-03T19:15:19.337Z,1.10
2018-01-03T19:17:46.666Z,1.63
2018-01-03T19:20:14.007Z,2.30
2018-01-03T19:22:41.326Z,1.77
2018-01-03T19:25:09.154Z,1.60
2018-01-03T19:27:37.101Z,1.80
2018-01-03T19:30:04.988Z,1.87
2018-01-03T19:32:32.868Z,1.50
2018-01-03T19:35:00.251Z,2.10
2018-01-03T19:37:28.076Z,1.63
2018-01-03T19:39:55.528Z,1.60
2018-01-03T19:42:22.822Z,2.20
2018-01-03T19:44:50.749Z,2.20
2018-01-03T19:47:18.255Z,1.40
2018-01-03T19:49:46.175Z,1.57
2018-01-03T19:52:14.061Z,1.83
2018-01-03T19:54:41.422Z,1.43
2018-01-03T19:57:08.728Z,1.50
2018-01-03T19:59:36.030Z,1.70
2018-01-03T20:02:03.980Z,1.37
2018-01-03T20:04:31.667Z,1.30
2018-01-03T20:06:59.527Z,1.80
2018-01-03T20:09:27.107Z,1.40
2018-01-03T20:11:55.028Z,1.30
2018-01-03T20:14:22.909Z,1.10
2018-01-03T20:16:50.909Z,1.10
2018-01-03T20:19:18.830Z,1.20
2018-01-03T20:21:46.495Z,1.10
2018-01-03T20:24:14.297Z,1.20
2018-01-03T20:26:42.170Z,1.00
2018-01-03T20:29:10.144Z,1.20
2018-01-03T20:31:37.833Z,1.10
2018-01-03T20:34:05.654Z,1.00
2018-01-03T20:36:33.302Z,1.33
2018-01-03T20:39:00.642Z,1.00
2018-01-03T20:41:28.033Z,1.13
2018-01-03T20:43:55.975Z,1.17
2018-01-03T20:46:23.277Z,0.93
2018-01-03T20:48:51.083Z,1.47
2018-01-03T20:51:18.582Z,1.30
2018-01-03T20:53:46.305Z,1.60
2018-01-03T20:56:13.973Z,1.30
2018-01-03T20:58:41.688Z,1.53
2018-01-03T21:01:09.342Z,1.53
2018-01-03T21:03:37.041Z,1.53
2018-01-03T21:06:04.814Z,1.80
2018-01-03T21:08:32.163Z,1.50
2018-01-03T21:10:59.619Z,1.53
2018-01-03T21:13:27.474Z,1.60
2018-01-03T21:15:55.002Z,1.40
2018-01-03T21:18:26.057Z,2.70
2018-01-03T21:20:53.440Z,1.60
2018-01-03T21:23:21.151Z,1.40
2018-01-03T21:25:48.822Z,1.53
2018-01-03T21:28:16.474Z,2.20
2018-01-03T21:30:44.307Z,2.00
2018-01-03T21:33:11.716Z,1.53
2018-01-03T21:35:39.337Z,2.37
2018-01-03T21:38:06.736Z,1.73
2018-01-03T21:40:34.320Z,1.83
2018-01-03T21:43:01.800Z,1.50
2018-01-03T21:45:29.492Z,1.67
2018-01-03T21:47:57.328Z,1.70
2018-01-03T21:50:24.786Z,1.67
2018-01-03T21:52:52.457Z,1.60
2018-01-03T21:55:19.812Z,1.90
2018-01-03T21:57:47.147Z,1.90
2018-01-03T22:00:14.879Z,1.63
2018-01-03T22:02:42.297Z,1.90
2018-01-03T22:05:09.657Z,1.60
2018-01-03T22:07:37.434Z,1.30
2018-01-03T22:10:05.065Z,1.60
2018-01-03T22:12:32.443Z,1.50
2018-01-03T22:15:00.115Z,1.80
2018-01-03T22:17:27.765Z,2.17
2018-01-03T22:19:55.462Z,1.80
2018-01-03T22:22:23.210Z,2.03
2018-01-03T22:24:50.874Z,1.97
2018-01-03T22:27:18.526Z,2.20
2018-01-03T22:29:46.800Z,1.67
2018-01-03T22:32:14.499Z,1.30
2018-01-03T22:34:42.225Z,1.60
2018-01-03T22:37:09.542Z,1.90
2018-01-03T22:39:36.968Z,1.63
2018-01-03T22:42:04.506Z,1.60
2018-01-03T22:44:32.580Z,1.60
2018-01-03T22:46:59.931Z,1.50
2018-01-03T22:49:27.606Z,1.73
2018-01-03T22:51:54.928Z,1.90
2018-01-03T22:54:22.603Z,1.67
2018-01-03T22:56:50.282Z,1.80
2018-01-03T22:59:17.636Z,1.47
2018-01-03T23:01:45.005Z,2.30
2018-01-03T23:04:12.778Z,1.90
2018-01-03T23:06:40.441Z,1.60
2018-01-03T23:09:07.747Z,2.13
2018-01-03T23:11:35.502Z,1.70
2018-01-03T23:14:03.130Z,1.70
2018-01-03T23:16:30.449Z,1.70
2018-01-03T23:18:57.790Z,1.90
2018-01-03T23:21:25.411Z,1.53
2018-01-03T23:23:53.122Z,1.83
2018-01-03T23:26:20.734Z,1.80
2018-01-03T23:28:48.049Z,1.60
2018-01-03T23:31:15.405Z,1.40
2018-01-03T23:33:42.706Z,1.40
2018-01-03T23:36:10.026Z,1.40
2018-01-03T23:38:37.948Z,1.90
2018-01-03T23:41:05.783Z,1.90
2018-01-03T23:43:33.114Z,1.80
2018-01-03T23:46:01.094Z,1.93
2018-01-03T23:48:28.466Z,1.50
2018-01-03T23:50:55.774Z,1.70
2018-01-03T23:53:23.131Z,1.93
2018-01-03T23:55:50.446Z,1.50
2018-01-03T23:58:18.126Z,1.57
